createdAt,value
2023-02-19T00:02:12.798Z,69.73
2023-02-19T00:04:39.708Z,69.34
2023-02-19T00:07:06.631Z,69.42
2023-02-19T00:09:33.640Z,69.87
2023-02-19T00:12:00.813Z,69.72
2023-02-19T00:14:28.282Z,69.25
2023-02-19T00:17:00.164Z,69.53
2023-02-19T00:19:28.340Z,69.38
2023-02-19T00:21:57.819Z,69.93
2023-02-19T00:24:24.934Z,69.53
2023-02-19T00:26:52.204Z,69.64
2023-02-19T00:29:21.134Z,69.21
2023-02-19T00:31:48.272Z,69.72
2023-02-19T00:34:15.414Z,69.50
2023-02-19T00:36:42.941Z,69.32
2023-02-19T00:39:12.133Z,69.59
2023-02-19T00:41:39.255Z,69.71
2023-02-19T00:44:07.663Z,69.52
2023-02-19T00:46:34.616Z,69.61
2023-02-19T00:49:04.046Z,69.77
2023-02-19T00:51:32.309Z,69.42
2023-02-19T00:54:00.002Z,69.81
2023-02-19T00:56:27.026Z,69.44
2023-02-19T00:58:54.092Z,69.52
2023-02-19T01:01:21.468Z,69.72
2023-02-19T01:03:48.687Z,69.90
2023-02-19T01:06:17.461Z,69.41
2023-02-19T01:08:44.841Z,69.57
2023-02-19T01:11:12.874Z,69.55
2023-02-19T01:13:40.198Z,69.63
2023-02-19T01:16:09.415Z,69.98
2023-02-19T01:18:38.469Z,69.80
2023-02-19T01:21:08.080Z,70.01
2023-02-19T01:23:36.103Z,69.62
2023-02-19T01:26:07.350Z,69.38
2023-02-19T01:28:34.494Z,69.70
2023-02-19T01:31:05.667Z,69.53
2023-02-19T01:33:35.616Z,69.69
2023-02-19T01:36:06.584Z,70.27
2023-02-19T01:38:33.792Z,69.63
2023-02-19T01:41:05.388Z,69.66
2023-02-19T01:43:33.146Z,69.88
2023-02-19T01:46:00.186Z,69.92
2023-02-19T01:48:29.972Z,69.78
2023-02-19T01:50:59.760Z,70.14
2023-02-19T01:53:28.622Z,69.56
2023-02-19T01:55:58.072Z,69.84
2023-02-19T01:58:28.299Z,70.05
2023-02-19T02:00:58.838Z,69.65
2023-02-19T02:03:26.149Z,69.55
2023-02-19T02:05:57.795Z,69.52
2023-02-19T02:08:44.350Z,70.24
2023-02-19T02:11:11.612Z,69.65
2023-02-19T02:13:39.458Z,70.05
2023-02-19T02:16:32.503Z,70.20
2023-02-19T02:19:02.778Z,70.32
2023-02-19T02:21:40.961Z,70.05
2023-02-19T02:24:08.448Z,70.35
2023-02-19T02:26:44.055Z,69.78
2023-02-19T02:29:23.135Z,69.81
2023-02-19T02:32:04.466Z,70.28
2023-02-19T02:34:37.149Z,70.23
2023-02-19T02:37:04.848Z,69.61
2023-02-19T02:39:32.614Z,70.15
2023-02-19T02:42:20.287Z,69.93
2023-02-19T02:45:16.373Z,69.63
2023-02-19T02:47:55.344Z,69.96
2023-02-19T02:50:25.264Z,70.02
2023-02-19T02:53:15.070Z,70.19
2023-02-19T02:55:44.209Z,69.88
2023-02-19T02:58:12.362Z,69.75
2023-02-19T03:01:00.065Z,70.10
2023-02-19T03:03:28.048Z,69.69
2023-02-19T03:05:58.968Z,70.00
2023-02-19T03:08:38.303Z,69.83
2023-02-19T03:11:29.574Z,69.96
2023-02-19T03:14:21.375Z,69.97
2023-02-19T03:17:09.111Z,69.95
2023-02-19T03:19:40.052Z,69.89
2023-02-19T03:22:10.985Z,69.92
2023-02-19T03:25:15.270Z,69.89
2023-02-19T03:27:43.782Z,70.27
2023-02-19T03:30:24.711Z,70.17
2023-02-19T03:32:58.182Z,70.25
2023-02-19T03:35:27.475Z,69.78
2023-02-19T03:37:54.541Z,69.63
2023-02-19T03:40:24.436Z,70.27
2023-02-19T03:42:56.186Z,69.78
2023-02-19T03:45:29.610Z,70.06
2023-02-19T03:48:05.944Z,70.00
2023-02-19T03:50:44.784Z,69.86
2023-02-19T03:53:23.264Z,70.17
2023-02-19T03:55:59.495Z,70.08
2023-02-19T03:58:31.401Z,70.57
2023-02-19T04:00:58.473Z,70.28
2023-02-19T04:03:29.723Z,70.61
2023-02-19T04:06:02.084Z,70.30
2023-02-19T04:08:30.178Z,70.42
2023-02-19T04:11:03.541Z,70.56
2023-02-19T04:13:37.279Z,70.25
2023-02-19T04:16:09.101Z,70.60
2023-02-19T04:18:41.228Z,69.84
2023-02-19T04:21:09.528Z,70.47
2023-02-19T04:23:40.201Z,70.05
2023-02-19T04:26:08.214Z,70.37
2023-02-19T04:28:42.408Z,70.22
2023-02-19T04:31:09.700Z,70.51
2023-02-19T04:33:38.116Z,70.38
2023-02-19T04:36:05.703Z,70.45
2023-02-19T04:38:32.628Z,70.62
2023-02-19T04:41:03.023Z,70.52
2023-02-19T04:43:29.903Z,70.31
2023-02-19T04:45:59.798Z,70.67
2023-02-19T04:48:26.842Z,70.40
2023-02-19T04:50:53.934Z,70.51
2023-02-19T04:53:21.034Z,70.78
2023-02-19T04:55:48.686Z,70.47
2023-02-19T04:58:15.711Z,70.91
2023-02-19T05:00:42.507Z,70.61
2023-02-19T05:03:09.420Z,70.43
2023-02-19T05:05:37.389Z,70.66
2023-02-19T05:08:04.268Z,70.74
2023-02-19T05:10:31.298Z,70.39
2023-02-19T05:12:58.226Z,70.71
2023-02-19T05:15:25.380Z,70.74
2023-02-19T05:17:52.461Z,70.40
2023-02-19T05:20:19.497Z,70.71
2023-02-19T05:22:46.688Z,70.63
2023-02-19T05:25:13.795Z,70.61
2023-02-19T05:27:40.815Z,70.44
2023-02-19T05:30:08.098Z,70.45
2023-02-19T05:32:35.325Z,70.66
2023-02-19T05:35:02.309Z,70.70
2023-02-19T05:37:29.392Z,70.72
2023-02-19T05:39:56.317Z,70.77
2023-02-19T05:42:28.251Z,70.49
2023-02-19T05:44:55.673Z,70.31
2023-02-19T05:47:22.764Z,70.74
2023-02-19T05:49:56.652Z,70.92
2023-02-19T05:52:23.909Z,70.59
2023-02-19T05:54:52.356Z,71.08
2023-02-19T05:57:20.611Z,71.11
2023-02-19T05:59:50.014Z,70.42
2023-02-19T06:02:42.826Z,70.74
2023-02-19T06:05:10.228Z,71.04
2023-02-19T06:07:39.973Z,70.47
2023-02-19T06:10:07.293Z,70.96
2023-02-19T06:12:34.238Z,70.75
2023-02-19T06:15:01.119Z,70.53
2023-02-19T06:17:28.019Z,70.40
2023-02-19T06:19:54.938Z,70.81
2023-02-19T06:22:25.350Z,70.19
2023-02-19T06:24:52.417Z,70.19
2023-02-19T06:27:19.817Z,70.48
2023-02-19T06:29:51.624Z,71.08
2023-02-19T06:32:19.257Z,70.45
2023-02-19T06:34:49.502Z,70.62
2023-02-19T06:39:58.616Z,70.52
2023-02-19T06:42:31.859Z,70.95
2023-02-19T06:44:59.017Z,70.74
2023-02-19T06:47:33.033Z,70.90
2023-02-19T06:50:00.827Z,70.56
2023-02-19T06:52:28.406Z,70.77
2023-02-19T06:54:59.783Z,70.21
2023-02-19T06:57:28.264Z,70.38
2023-02-19T06:59:55.230Z,70.76
2023-02-19T07:02:23.772Z,70.19
2023-02-19T07:04:54.438Z,70.42
2023-02-19T07:07:28.091Z,70.05
2023-02-19T07:09:54.890Z,70.20
2023-02-19T07:12:21.709Z,70.97
2023-02-19T07:14:48.587Z,70.90
2023-02-19T07:17:15.505Z,70.27
2023-02-19T07:19:42.411Z,70.67
2023-02-19T07:22:09.268Z,70.97
2023-02-19T07:24:36.261Z,70.99
2023-02-19T07:27:03.210Z,70.60
2023-02-19T07:29:29.906Z,70.86
2023-02-19T07:31:56.747Z,71.03
2023-02-19T07:34:23.642Z,70.69
2023-02-19T07:36:50.459Z,70.89
2023-02-19T07:39:17.334Z,70.69
2023-02-19T07:41:44.298Z,70.66
2023-02-19T07:44:23.176Z,70.82
2023-02-19T07:46:50.013Z,71.30
2023-02-19T07:49:16.837Z,71.00
2023-02-19T07:51:45.713Z,70.91
2023-02-19T07:54:18.413Z,70.59
2023-02-19T07:56:45.286Z,71.39
2023-02-19T07:59:12.654Z,70.48
2023-02-19T08:01:58.340Z,70.51
2023-02-19T08:04:26.006Z,70.71
2023-02-19T08:06:53.066Z,70.86
2023-02-19T08:09:19.944Z,70.59
2023-02-19T08:12:05.518Z,70.64
2023-02-19T08:14:35.178Z,71.17
2023-02-19T08:17:03.584Z,70.77
2023-02-19T08:19:38.747Z,70.66
2023-02-19T08:25:21.384Z,70.54
2023-02-19T08:27:51.705Z,70.59
2023-02-19T08:30:19.285Z,70.70
2023-02-19T08:32:51.424Z,70.49
2023-02-19T08:35:26.543Z,70.31
2023-02-19T08:38:20.976Z,70.76
2023-02-19T08:40:58.481Z,71.04
2023-02-19T08:43:26.057Z,70.64
2023-02-19T08:45:56.658Z,70.65
2023-02-19T08:48:28.960Z,70.87
2023-02-19T08:51:01.120Z,71.04
2023-02-19T08:56:41.186Z,70.83
2023-02-19T09:02:23.265Z,71.14
2023-02-19T09:04:51.699Z,70.72
2023-02-19T09:07:27.450Z,70.71
2023-02-19T09:09:56.080Z,70.86
2023-02-19T09:12:38.035Z,71.31
2023-02-19T09:18:02.859Z,70.93
2023-02-19T09:20:33.705Z,70.73
2023-02-19T09:23:02.532Z,70.55
2023-02-19T09:25:39.063Z,71.21
2023-02-19T09:28:19.878Z,71.16
2023-02-19T09:37:04.394Z,71.02
2023-02-19T09:40:31.762Z,71.15
2023-02-19T09:43:36.323Z,71.30
2023-02-19T09:46:26.174Z,71.18
2023-02-19T09:49:26.222Z,70.69
2023-02-19T09:52:10.851Z,70.86
2023-02-19T09:54:38.978Z,70.87
2023-02-19T09:57:11.872Z,70.87
2023-02-19T09:59:46.898Z,70.54
2023-02-19T10:02:17.001Z,71.20
2023-02-19T10:04:45.815Z,70.93
2023-02-19T10:07:20.210Z,71.09
2023-02-19T10:10:10.278Z,70.83
2023-02-19T10:12:38.279Z,71.36
2023-02-19T10:15:26.444Z,71.10
2023-02-19T10:18:08.258Z,70.59
2023-02-19T10:21:20.412Z,71.18
2023-02-19T10:23:58.018Z,71.01
2023-02-19T10:26:26.817Z,70.70
2023-02-19T10:29:01.637Z,70.82
2023-02-19T10:31:42.350Z,70.82
2023-02-19T10:34:21.839Z,71.20
2023-02-19T10:36:52.146Z,70.85
2023-02-19T10:39:24.252Z,70.88
2023-02-19T10:42:05.204Z,71.07
2023-02-19T10:44:43.640Z,71.01
2023-02-19T10:47:23.370Z,70.85
2023-02-19T10:49:59.116Z,70.73
2023-02-19T10:52:31.385Z,70.73
2023-02-19T10:55:18.915Z,70.66
2023-02-19T10:57:55.509Z,70.60
2023-02-19T11:00:30.805Z,70.48
2023-02-19T11:03:18.938Z,70.28
2023-02-19T11:06:00.463Z,70.29
2023-02-19T11:08:40.078Z,69.85
2023-02-19T11:11:07.245Z,69.81
2023-02-19T11:13:38.311Z,70.05
2023-02-19T11:16:06.255Z,70.31
2023-02-19T11:18:39.046Z,70.05
2023-02-19T11:21:07.949Z,70.21
2023-02-19T11:23:37.679Z,70.19
2023-02-19T11:26:07.001Z,70.36
2023-02-19T11:28:40.780Z,70.33
2023-02-19T11:31:15.686Z,70.27
2023-02-19T11:33:59.722Z,70.40
2023-02-19T11:36:30.279Z,70.62
2023-02-19T11:38:59.071Z,70.80
2023-02-19T11:41:45.376Z,70.68
2023-02-19T11:44:12.417Z,70.92
2023-02-19T11:46:39.452Z,70.96
2023-02-19T11:49:32.948Z,71.02
2023-02-19T11:52:00.258Z,70.72
2023-02-19T11:54:30.613Z,70.53
2023-02-19T11:57:07.399Z,70.58
2023-02-19T11:59:41.813Z,70.57
2023-02-19T12:02:24.957Z,70.36
2023-02-19T12:04:52.187Z,70.39
2023-02-19T12:07:38.105Z,70.54
2023-02-19T12:10:17.590Z,70.78
2023-02-19T12:13:02.965Z,70.81
2023-02-19T12:15:33.104Z,70.95
2023-02-19T12:18:00.301Z,71.05
2023-02-19T12:20:33.665Z,71.01
2023-02-19T12:23:09.858Z,71.29
2023-02-19T12:25:51.964Z,71.05
2023-02-19T12:28:26.706Z,71.05
2023-02-19T12:31:03.361Z,70.84
2023-02-19T12:33:43.423Z,70.82
2023-02-19T12:36:13.650Z,70.88
2023-02-19T12:38:45.988Z,70.80
2023-02-19T12:41:22.341Z,70.61
2023-02-19T12:44:09.832Z,70.59
2023-02-19T12:46:38.943Z,70.64
2023-02-19T12:49:14.417Z,70.43
2023-02-19T12:51:55.340Z,70.72
2023-02-19T12:54:23.958Z,70.98
2023-02-19T12:56:51.153Z,70.75
2023-02-19T12:59:44.496Z,70.51
2023-02-19T13:02:31.798Z,70.91
2023-02-19T13:05:01.776Z,70.41
2023-02-19T13:07:34.192Z,70.94
2023-02-19T13:10:06.692Z,70.83
2023-02-19T13:12:37.319Z,71.02
2023-02-19T13:15:07.690Z,70.78
2023-02-19T13:17:39.137Z,70.91
2023-02-19T13:20:22.310Z,71.26
2023-02-19T13:23:15.761Z,70.92
2023-02-19T13:26:04.357Z,70.91
2023-02-19T13:28:31.515Z,70.76
2023-02-19T13:31:24.070Z,70.91
2023-02-19T13:33:57.481Z,71.26
2023-02-19T13:36:27.647Z,70.78
2023-02-19T13:38:59.104Z,71.25
2023-02-19T13:41:41.867Z,71.05
2023-02-19T13:44:22.797Z,70.94
2023-02-19T13:46:50.781Z,71.45
2023-02-19T13:49:30.063Z,70.89
2023-02-19T13:52:23.571Z,70.97
2023-02-19T13:54:51.571Z,70.66
2023-02-19T13:57:18.682Z,71.30
2023-02-19T13:59:46.512Z,70.83
2023-02-19T14:02:26.668Z,70.71
2023-02-19T14:04:55.700Z,71.22
2023-02-19T14:07:34.937Z,70.81
2023-02-19T14:10:02.179Z,71.23
2023-02-19T14:12:39.361Z,70.95
2023-02-19T14:15:40.081Z,71.22
2023-02-19T14:18:25.799Z,70.85
2023-02-19T14:21:06.516Z,70.87
2023-02-19T14:23:33.451Z,71.20
2023-02-19T14:26:01.433Z,71.35
2023-02-19T14:28:36.432Z,71.54
2023-02-19T14:31:23.662Z,71.50
2023-02-19T14:33:52.468Z,70.73
2023-02-19T14:36:44.351Z,71.59
2023-02-19T14:39:24.429Z,71.41
2023-02-19T14:41:53.090Z,71.60
2023-02-19T14:44:25.993Z,71.15
2023-02-19T14:46:58.999Z,71.54
2023-02-19T14:49:48.978Z,71.62
2023-02-19T14:52:20.003Z,70.96
2023-02-19T14:54:54.089Z,71.84
2023-02-19T14:57:27.451Z,70.92
2023-02-19T14:59:59.142Z,71.58
2023-02-19T15:02:27.576Z,71.43
2023-02-19T15:04:55.752Z,71.35
2023-02-19T15:07:26.420Z,71.09
2023-02-19T15:09:57.256Z,71.40
2023-02-19T15:12:26.935Z,71.10
2023-02-19T15:15:02.853Z,71.63
2023-02-19T15:17:31.518Z,71.51
2023-02-19T15:20:00.568Z,71.23
2023-02-19T15:22:28.615Z,71.04
2023-02-19T15:24:58.214Z,71.46
2023-02-19T15:27:25.689Z,70.90
2023-02-19T15:29:53.731Z,71.17
2023-02-19T15:32:26.783Z,71.47
2023-02-19T15:34:58.287Z,71.02
2023-02-19T15:37:28.753Z,71.05
2023-02-19T15:39:59.064Z,71.64
2023-02-19T15:42:26.209Z,71.01
2023-02-19T15:44:57.220Z,71.29
2023-02-19T15:47:33.913Z,71.01
2023-02-19T15:50:21.633Z,71.40
2023-02-19T15:52:59.427Z,71.13
2023-02-19T15:55:45.402Z,71.30
2023-02-19T15:58:15.352Z,71.45
2023-02-19T16:00:52.251Z,71.26
2023-02-19T16:03:21.877Z,70.90
2023-02-19T16:06:12.039Z,71.51
2023-02-19T16:08:42.381Z,71.36
2023-02-19T16:11:26.987Z,71.10
2023-02-19T16:14:13.790Z,71.36
2023-02-19T16:16:41.865Z,71.01
2023-02-19T16:19:10.025Z,71.08
2023-02-19T16:21:37.207Z,71.26
2023-02-19T16:24:08.229Z,71.46
2023-02-19T16:26:56.140Z,71.77
2023-02-19T16:29:29.102Z,71.50
2023-02-19T16:31:59.723Z,71.11
2023-02-19T16:34:47.289Z,71.62
2023-02-19T16:37:35.580Z,71.33
2023-02-19T16:40:10.151Z,71.55
2023-02-19T16:43:07.849Z,70.86
2023-02-19T16:45:37.081Z,70.98
2023-02-19T16:48:04.968Z,71.60
2023-02-19T16:53:31.308Z,71.32
2023-02-19T16:56:03.838Z,71.24
2023-02-19T16:59:18.220Z,71.76
2023-02-19T17:01:48.177Z,71.41
2023-02-19T17:04:16.199Z,71.49
2023-02-19T17:06:51.494Z,71.80
2023-02-19T17:09:32.640Z,71.58
2023-02-19T17:12:01.159Z,71.59
2023-02-19T17:14:35.331Z,71.16
2023-02-19T17:17:06.290Z,71.48
2023-02-19T17:19:39.575Z,71.49
2023-02-19T17:22:08.192Z,71.51
2023-02-19T17:25:04.638Z,71.19
2023-02-19T17:30:35.355Z,71.69
2023-02-19T17:34:02.449Z,71.88
2023-02-19T17:37:01.279Z,71.44
2023-02-19T17:39:34.604Z,71.55
2023-02-19T17:42:21.489Z,71.51
2023-02-19T17:44:51.548Z,71.52
2023-02-19T17:47:22.097Z,71.40
2023-02-19T17:49:52.587Z,71.83
2023-02-19T17:52:20.170Z,71.58
2023-02-19T17:54:48.142Z,71.15
2023-02-19T17:57:17.078Z,71.02
2023-02-19T17:59:44.330Z,71.04
2023-02-19T18:02:11.501Z,71.83
2023-02-19T18:04:48.716Z,71.64
2023-02-19T18:07:16.796Z,71.09
2023-02-19T18:09:54.634Z,71.34
2023-02-19T18:12:22.277Z,71.65
2023-02-19T18:14:49.509Z,72.01
2023-02-19T18:17:19.664Z,71.20
2023-02-19T18:19:54.377Z,72.01
2023-02-19T18:22:47.681Z,71.50
2023-02-19T18:25:17.957Z,71.50
2023-02-19T18:27:45.038Z,71.75
2023-02-19T18:30:12.987Z,71.99
2023-02-19T18:32:42.590Z,71.73
2023-02-19T18:35:11.016Z,71.51
2023-02-19T18:37:38.782Z,71.66
2023-02-19T18:40:07.712Z,71.67
2023-02-19T18:42:35.777Z,71.70
2023-02-19T18:47:52.918Z,71.70
2023-02-19T18:50:20.901Z,71.27
2023-02-19T18:52:48.265Z,71.80
2023-02-19T18:55:15.702Z,71.75
2023-02-19T18:57:43.070Z,71.17
2023-02-19T19:00:17.623Z,71.99
2023-02-19T19:02:49.648Z,71.87
2023-02-19T19:05:21.101Z,71.81
2023-02-19T19:07:49.055Z,71.64
2023-02-19T19:10:16.336Z,71.59
2023-02-19T19:12:43.237Z,71.60
2023-02-19T19:15:11.467Z,71.71
2023-02-19T19:17:38.956Z,71.37
2023-02-19T19:20:06.169Z,71.53
2023-02-19T19:22:33.464Z,71.72
2023-02-19T19:25:00.760Z,72.04
2023-02-19T19:27:37.262Z,71.47
2023-02-19T19:30:50.061Z,71.82
2023-02-19T19:33:17.661Z,71.28
2023-02-19T19:35:44.988Z,71.97
2023-02-19T19:38:12.686Z,71.86
2023-02-19T19:40:42.462Z,71.81
2023-02-19T19:43:10.003Z,71.38
2023-02-19T19:45:37.986Z,71.42
2023-02-19T19:48:08.063Z,71.90
2023-02-19T19:50:39.422Z,71.78
2023-02-19T19:53:06.655Z,72.01
2023-02-19T19:55:36.247Z,71.42
2023-02-19T19:58:04.754Z,72.01
2023-02-19T20:00:31.953Z,71.55
2023-02-19T20:02:59.134Z,71.30
2023-02-19T20:05:26.609Z,71.51
2023-02-19T20:07:55.007Z,71.90
2023-02-19T20:10:22.337Z,72.00
2023-02-19T20:12:49.400Z,71.91
2023-02-19T20:15:23.127Z,71.95
2023-02-19T20:17:50.352Z,71.65
2023-02-19T20:20:21.768Z,71.87
2023-02-19T20:22:49.602Z,71.33
2023-02-19T20:25:16.861Z,71.77
2023-02-19T20:27:43.956Z,71.97
2023-02-19T20:30:12.258Z,71.97
2023-02-19T20:32:39.417Z,71.69
2023-02-19T20:35:06.482Z,72.19
2023-02-19T20:37:33.309Z,72.04
2023-02-19T20:40:01.642Z,72.03
2023-02-19T20:42:31.630Z,71.98
2023-02-19T20:44:58.750Z,71.86
2023-02-19T20:47:25.813Z,72.16
2023-02-19T20:49:52.952Z,71.82
2023-02-19T20:52:25.302Z,71.86
2023-02-19T20:55:00.830Z,71.90
2023-02-19T20:57:28.023Z,71.58
2023-02-19T20:59:55.438Z,71.99
2023-02-19T21:02:27.978Z,71.73
2023-02-19T21:04:58.423Z,71.43
2023-02-19T21:07:25.794Z,71.95
2023-02-19T21:09:53.069Z,72.20
2023-02-19T21:12:21.127Z,72.00
2023-02-19T21:14:48.601Z,72.18
2023-02-19T21:17:19.661Z,71.71
2023-02-19T21:19:50.592Z,71.83
2023-02-19T21:22:17.807Z,71.86
2023-02-19T21:24:45.322Z,72.16
2023-02-19T21:27:12.534Z,72.00
2023-02-19T21:29:41.959Z,72.22
2023-02-19T21:32:15.213Z,71.56
2023-02-19T21:34:46.596Z,71.84
2023-02-19T21:37:13.624Z,71.98
2023-02-19T21:39:42.955Z,72.00
2023-02-19T21:42:12.483Z,71.85
2023-02-19T21:44:44.857Z,72.23
2023-02-19T21:47:15.074Z,71.62
2023-02-19T21:50:10.135Z,72.09
2023-02-19T21:52:37.308Z,71.60
2023-02-19T21:55:06.322Z,72.18
2023-02-19T21:57:37.206Z,71.86
2023-02-19T22:00:05.711Z,71.98
2023-02-19T22:02:32.993Z,71.56
2023-02-19T22:05:00.109Z,71.62
2023-02-19T22:07:27.255Z,72.06
2023-02-19T22:09:54.310Z,71.85
2023-02-19T22:12:21.301Z,72.23
2023-02-19T22:14:48.636Z,72.08
2023-02-19T22:17:15.518Z,72.10
2023-02-19T22:19:42.575Z,71.57
2023-02-19T22:22:10.086Z,71.94
2023-02-19T22:24:36.996Z,71.88
2023-02-19T22:27:03.907Z,72.35
2023-02-19T22:29:30.811Z,71.78
2023-02-19T22:31:57.903Z,72.23
2023-02-19T22:34:25.174Z,72.28
2023-02-19T22:36:52.252Z,72.14
2023-02-19T22:39:24.342Z,71.98
2023-02-19T22:41:51.881Z,72.28
2023-02-19T22:44:19.250Z,71.86
2023-02-19T22:46:56.124Z,72.18
2023-02-19T22:49:23.433Z,72.01
2023-02-19T22:52:03.767Z,71.96
2023-02-19T22:54:30.729Z,71.77
2023-02-19T22:56:57.741Z,71.87
2023-02-19T22:59:24.571Z,72.35
2023-02-19T23:01:51.786Z,72.25
2023-02-19T23:04:20.090Z,72.11
2023-02-19T23:06:49.763Z,71.78
2023-02-19T23:09:18.233Z,71.90
2023-02-19T23:11:45.791Z,71.98
2023-02-19T23:14:15.383Z,71.70
2023-02-19T23:16:42.349Z,71.51
2023-02-19T23:19:11.655Z,72.09
2023-02-19T23:21:40.365Z,71.73
2023-02-19T23:24:07.904Z,71.90
2023-02-19T23:26:34.971Z,71.69
2023-02-19T23:29:02.164Z,71.81
2023-02-19T23:31:29.295Z,72.03
2023-02-19T23:33:56.218Z,71.65
2023-02-19T23:36:24.115Z,72.37
2023-02-19T23:38:54.012Z,71.66
2023-02-19T23:41:20.856Z,72.20
2023-02-19T23:43:48.124Z,72.20
2023-02-19T23:46:17.658Z,72.15
2023-02-19T23:48:45.398Z,71.68
2023-02-19T23:51:12.867Z,71.99
2023-02-19T23:53:40.035Z,72.30
2023-02-19T23:56:07.289Z,72.11
2023-02-19T23:58:34.322Z,71.94
